KFAR

Hector International Airport

Fargo, North Dakota, USA
METAR KFAR 201517Z 35013KT 3/4SM -SN BR VV009 M14/M17 A3005 RMK AO2 P0000 T11441167
Observed Flight Rules
Feb-20 @ 15:17 UTC (2 hours ago) Instrument Flight Rules
Wind Visibility Clouds Conditions
350° at 13 knots 3/4 miles
  • Vertical visibility at 900' AGL
  • Light Snow
  • Mist
Temperatures Readings Precipitation
Current -14°C / 7°F
Dewpoint -17°C / 1°F
Humidity 78%
Altimeter 30.05" Hg
Pressure 1018 hPa
Elevation 277
Current Rain 0.005
METAR KFAR 201517Z 35013KT 3/4SM -SN BR VV009 M14/M17 A3005 RMK AO2 P0000 T11441167
Observed Flight Rules
Feb-20 @ 15:17 UTC
(2 hours ago)
LIFR
Wind Visibility
350° at 13 knots 3/4 miles
Clouds
  • Vertical visibility at 900' AGL
Conditions
  • Light Snow
  • Mist
Temperature Dewpoint
-14°C / 7°F -17°C / 1°F
Humidity Altimeter Pressure
78% 30.05" Hg 1018 hPa
Current Rain
0.005